sensor_id;sensor_type;location;lat;lon;timestamp;P1;durP1;ratioP1;P2;durP2;ratioP2
56680;SDS011;42558;52.388;13.390;2023-02-01T00:02:06;26.03;;;4.56;;
56680;SDS011;42558;52.388;13.390;2023-02-01T00:04:34;21.09;;;3.61;;
56680;SDS011;42558;52.388;13.390;2023-02-01T00:07:03;23.94;;;3.99;;
56680;SDS011;42558;52.388;13.390;2023-02-01T00:09:32;28.31;;;5.32;;
56680;SDS011;42558;52.388;13.390;2023-02-01T00:12:00;23.75;;;3.80;;
56680;SDS011;42558;52.388;13.390;2023-02-01T00:14:31;22.42;;;3.99;;
56680;SDS011;42558;52.388;13.390;2023-02-01T00:17:08;20.33;;;4.18;;
56680;SDS011;42558;52.388;13.390;2023-02-01T00:19:37;26.22;;;3.80;;
56680;SDS011;42558;52.388;13.390;2023-02-01T00:22:07;25.65;;;4.56;;
56680;SDS011;42558;52.388;13.390;2023-02-01T00:24:37;19.76;;;3.80;;
56680;SDS011;42558;52.388;13.390;2023-02-01T00:27:07;20.52;;;4.18;;
56680;SDS011;42558;52.388;13.390;2023-02-01T00:29:37;23.94;;;5.32;;
56680;SDS011;42558;52.388;13.390;2023-02-01T00:32:06;28.12;;;4.37;;
56680;SDS011;42558;52.388;13.390;2023-02-01T00:34:36;29.45;;;5.13;;
56680;SDS011;42558;52.388;13.390;2023-02-01T00:37:06;27.93;;;4.56;;
56680;SDS011;42558;52.388;13.390;2023-02-01T00:39:36;23.75;;;3.99;;
56680;SDS011;42558;52.388;13.390;2023-02-01T00:42:07;21.09;;;4.56;;
56680;SDS011;42558;52.388;13.390;2023-02-01T00:44:41;19.95;;;4.56;;
56680;SDS011;42558;52.388;13.390;2023-02-01T00:47:10;14.06;;;4.18;;
56680;SDS011;42558;52.388;13.390;2023-02-01T00:49:38;26.79;;;3.80;;
56680;SDS011;42558;52.388;13.390;2023-02-01T00:52:06;21.47;;;3.61;;
56680;SDS011;42558;52.388;13.390;2023-02-01T00:54:35;22.99;;;4.18;;
56680;SDS011;42558;52.388;13.390;2023-02-01T00:57:06;17.86;;;4.18;;
56680;SDS011;42558;52.388;13.390;2023-02-01T00:59:35;18.43;;;3.99;;
56680;SDS011;42558;52.388;13.390;2023-02-01T01:02:03;20.90;;;3.23;;
56680;SDS011;42558;52.388;13.390;2023-02-01T01:04:31;17.29;;;3.04;;
56680;SDS011;42558;52.388;13.390;2023-02-01T01:07:00;18.24;;;3.23;;
56680;SDS011;42558;52.388;13.390;2023-02-01T01:09:28;23.37;;;3.80;;
56680;SDS011;42558;52.388;13.390;2023-02-01T01:11:57;17.29;;;3.61;;
56680;SDS011;42558;52.388;13.390;2023-02-01T01:14:32;13.49;;;2.66;;
56680;SDS011;42558;52.388;13.390;2023-02-01T01:17:02;18.62;;;3.04;;
56680;SDS011;42558;52.388;13.390;2023-02-01T01:19:30;27.17;;;3.42;;
56680;SDS011;42558;52.388;13.390;2023-02-01T01:21:59;19.19;;;5.13;;
56680;SDS011;42558;52.388;13.390;2023-02-01T01:24:27;15.96;;;3.23;;
56680;SDS011;42558;52.388;13.390;2023-02-01T01:26:56;20.90;;;5.13;;
56680;SDS011;42558;52.388;13.390;2023-02-01T01:29:25;19.76;;;3.99;;
56680;SDS011;42558;52.388;13.390;2023-02-01T01:31:53;15.77;;;2.47;;
56680;SDS011;42558;52.388;13.390;2023-02-01T01:34:21;26.98;;;3.80;;
56680;SDS011;42558;52.388;13.390;2023-02-01T01:36:50;23.18;;;5.13;;
56680;SDS011;42558;52.388;13.390;2023-02-01T01:39:18;22.80;;;3.99;;
56680;SDS011;42558;52.388;13.390;2023-02-01T01:41:47;25.84;;;3.99;;
56680;SDS011;42558;52.388;13.390;2023-02-01T01:47:31;13.30;;;3.04;;
56680;SDS011;42558;52.388;13.390;2023-02-01T01:50:09;28.31;;;4.18;;
56680;SDS011;42558;52.388;13.390;2023-02-01T01:52:43;29.07;;;4.75;;
56680;SDS011;42558;52.388;13.390;2023-02-01T01:55:19;21.47;;;4.37;;
56680;SDS011;42558;52.388;13.390;2023-02-01T01:57:55;18.43;;;4.37;;
56680;SDS011;42558;52.388;13.390;2023-02-01T02:00:32;27.55;;;5.32;;
56680;SDS011;42558;52.388;13.390;2023-02-01T02:03:09;16.91;;;3.23;;
56680;SDS011;42558;52.388;13.390;2023-02-01T02:05:47;15.58;;;3.42;;
56680;SDS011;42558;52.388;13.390;2023-02-01T02:08:20;13.11;;;2.66;;
56680;SDS011;42558;52.388;13.390;2023-02-01T02:10:52;21.09;;;4.18;;
56680;SDS011;42558;52.388;13.390;2023-02-01T02:13:38;23.94;;;4.18;;
56680;SDS011;42558;52.388;13.390;2023-02-01T02:16:23;27.93;;;4.18;;
56680;SDS011;42558;52.388;13.390;2023-02-01T02:34:39;13.49;;;3.61;;
56680;SDS011;42558;52.388;13.390;2023-02-01T02:40:42;12.73;;;2.85;;
56680;SDS011;42558;52.388;13.390;2023-02-01T02:43:52;19.00;;;4.37;;
56680;SDS011;42558;52.388;13.390;2023-02-01T02:46:46;24.51;;;4.56;;
56680;SDS011;42558;52.388;13.390;2023-02-01T02:50:23;18.05;;;3.23;;
56680;SDS011;42558;52.388;13.390;2023-02-01T02:53:48;19.00;;;3.80;;
56680;SDS011;42558;52.388;13.390;2023-02-01T02:56:38;15.20;;;3.61;;
56680;SDS011;42558;52.388;13.390;2023-02-01T02:59:29;21.28;;;3.99;;
56680;SDS011;42558;52.388;13.390;2023-02-01T03:02:21;23.94;;;4.18;;
56680;SDS011;42558;52.388;13.390;2023-02-01T03:05:10;26.79;;;4.94;;
56680;SDS011;42558;52.388;13.390;2023-02-01T03:07:49;15.77;;;4.37;;
56680;SDS011;42558;52.388;13.390;2023-02-01T03:10:53;19.38;;;3.42;;
56680;SDS011;42558;52.388;13.390;2023-02-01T03:13:55;19.38;;;4.18;;
56680;SDS011;42558;52.388;13.390;2023-02-01T03:16:34;23.18;;;4.75;;
56680;SDS011;42558;52.388;13.390;2023-02-01T03:19:23;20.71;;;4.37;;
56680;SDS011;42558;52.388;13.390;2023-02-01T03:22:07;18.24;;;3.99;;
56680;SDS011;42558;52.388;13.390;2023-02-01T03:24:42;15.77;;;3.04;;
56680;SDS011;42558;52.388;13.390;2023-02-01T03:27:27;27.74;;;4.75;;
56680;SDS011;42558;52.388;13.390;2023-02-01T03:32:47;22.42;;;3.61;;
56680;SDS011;42558;52.388;13.390;2023-02-01T03:38:32;19.19;;;3.80;;
56680;SDS011;42558;52.388;13.390;2023-02-01T03:41:18;19.19;;;4.37;;
56680;SDS011;42558;52.388;13.390;2023-02-01T03:43:58;22.80;;;4.37;;
56680;SDS011;42558;52.388;13.390;2023-02-01T03:49:34;28.50;;;5.89;;
56680;SDS011;42558;52.388;13.390;2023-02-01T03:52:20;28.12;;;4.75;;
56680;SDS011;42558;52.388;13.390;2023-02-01T03:54:54;21.66;;;4.94;;
56680;SDS011;42558;52.388;13.390;2023-02-01T03:57:29;20.33;;;5.13;;
56680;SDS011;42558;52.388;13.390;2023-02-01T04:00:08;16.91;;;3.04;;
56680;SDS011;42558;52.388;13.390;2023-02-01T04:02:50;20.52;;;3.99;;
56680;SDS011;42558;52.388;13.390;2023-02-01T04:05:21;22.99;;;4.75;;
56680;SDS011;42558;52.388;13.390;2023-02-01T04:07:49;26.22;;;4.94;;
56680;SDS011;42558;52.388;13.390;2023-02-01T04:10:18;18.05;;;3.99;;
56680;SDS011;42558;52.388;13.390;2023-02-01T04:12:46;20.14;;;4.56;;
56680;SDS011;42558;52.388;13.390;2023-02-01T04:15:14;18.05;;;3.80;;
56680;SDS011;42558;52.388;13.390;2023-02-01T04:17:43;17.29;;;4.18;;
56680;SDS011;42558;52.388;13.390;2023-02-01T04:20:11;19.57;;;4.94;;
56680;SDS011;42558;52.388;13.390;2023-02-01T04:22:40;23.56;;;3.42;;
56680;SDS011;42558;52.388;13.390;2023-02-01T04:25:08;21.66;;;4.37;;
56680;SDS011;42558;52.388;13.390;2023-02-01T04:27:37;20.33;;;4.37;;
56680;SDS011;42558;52.388;13.390;2023-02-01T04:30:06;22.42;;;4.37;;
56680;SDS011;42558;52.388;13.390;2023-02-01T04:32:39;20.71;;;3.61;;
56680;SDS011;42558;52.388;13.390;2023-02-01T04:35:10;20.52;;;4.18;;
56680;SDS011;42558;52.388;13.390;2023-02-01T04:37:41;17.29;;;3.99;;
56680;SDS011;42558;52.388;13.390;2023-02-01T04:40:11;30.59;;;5.89;;
56680;SDS011;42558;52.388;13.390;2023-02-01T04:42:41;19.57;;;4.37;;
56680;SDS011;42558;52.388;13.390;2023-02-01T04:45:12;24.70;;;4.37;;
56680;SDS011;42558;52.388;13.390;2023-02-01T04:47:42;22.80;;;3.61;;
56680;SDS011;42558;52.388;13.390;2023-02-01T04:50:12;18.62;;;5.13;;
56680;SDS011;42558;52.388;13.390;2023-02-01T04:52:42;22.42;;;3.99;;
56680;SDS011;42558;52.388;13.390;2023-02-01T04:55:14;26.22;;;5.32;;
56680;SDS011;42558;52.388;13.390;2023-02-01T04:57:44;22.23;;;5.32;;
56680;SDS011;42558;52.388;13.390;2023-02-01T05:00:14;21.28;;;4.37;;
56680;SDS011;42558;52.388;13.390;2023-02-01T05:02:45;26.60;;;5.89;;
56680;SDS011;42558;52.388;13.390;2023-02-01T05:05:15;21.85;;;3.80;;
56680;SDS011;42558;52.388;13.390;2023-02-01T05:07:46;20.14;;;4.56;;
56680;SDS011;42558;52.388;13.390;2023-02-01T05:10:16;18.81;;;4.75;;
56680;SDS011;42558;52.388;13.390;2023-02-01T05:12:46;16.34;;;4.37;;
56680;SDS011;42558;52.388;13.390;2023-02-01T05:15:35;25.84;;;4.18;;
56680;SDS011;42558;52.388;13.390;2023-02-01T05:18:05;23.56;;;4.37;;
56680;SDS011;42558;52.388;13.390;2023-02-01T05:20:34;23.18;;;4.75;;
56680;SDS011;42558;52.388;13.390;2023-02-01T05:23:04;20.71;;;5.13;;
56680;SDS011;42558;52.388;13.390;2023-02-01T05:25:35;22.42;;;5.32;;
56680;SDS011;42558;52.388;13.390;2023-02-01T05:28:05;25.08;;;5.32;;
56680;SDS011;42558;52.388;13.390;2023-02-01T05:30:35;19.95;;;4.94;;
56680;SDS011;42558;52.388;13.390;2023-02-01T05:33:05;21.47;;;5.32;;
56680;SDS011;42558;52.388;13.390;2023-02-01T05:35:34;19.00;;;5.51;;
56680;SDS011;42558;52.388;13.390;2023-02-01T05:38:04;25.27;;;4.56;;
56680;SDS011;42558;52.388;13.390;2023-02-01T05:40:34;13.87;;;4.37;;
56680;SDS011;42558;52.388;13.390;2023-02-01T05:43:04;26.22;;;4.94;;
56680;SDS011;42558;52.388;13.390;2023-02-01T05:45:33;26.60;;;4.75;;
56680;SDS011;42558;52.388;13.390;2023-02-01T05:48:04;16.34;;;3.42;;
56680;SDS011;42558;52.388;13.390;2023-02-01T05:50:33;27.36;;;3.99;;
56680;SDS011;42558;52.388;13.390;2023-02-01T05:53:03;26.60;;;4.94;;
56680;SDS011;42558;52.388;13.390;2023-02-01T05:55:33;11.40;;;3.61;;
56680;SDS011;42558;52.388;13.390;2023-02-01T05:58:04;30.02;;;5.32;;
56680;SDS011;42558;52.388;13.390;2023-02-01T06:00:34;21.66;;;5.51;;
56680;SDS011;42558;52.388;13.390;2023-02-01T06:03:05;21.09;;;4.56;;
56680;SDS011;42558;52.388;13.390;2023-02-01T06:05:33;23.75;;;4.75;;
56680;SDS011;42558;52.388;13.390;2023-02-01T06:08:01;17.48;;;4.37;;
56680;SDS011;42558;52.388;13.390;2023-02-01T06:10:30;21.66;;;4.56;;
56680;SDS011;42558;52.388;13.390;2023-02-01T06:12:58;27.55;;;4.75;;
56680;SDS011;42558;52.388;13.390;2023-02-01T06:15:26;32.68;;;5.89;;
56680;SDS011;42558;52.388;13.390;2023-02-01T06:17:55;25.84;;;5.13;;
56680;SDS011;42558;52.388;13.390;2023-02-01T06:20:24;22.23;;;4.37;;
56680;SDS011;42558;52.388;13.390;2023-02-01T06:22:52;26.03;;;5.13;;
56680;SDS011;42558;52.388;13.390;2023-02-01T06:25:20;25.27;;;6.08;;
56680;SDS011;42558;52.388;13.390;2023-02-01T06:27:49;19.00;;;4.18;;
56680;SDS011;42558;52.388;13.390;2023-02-01T06:30:17;25.46;;;5.13;;
56680;SDS011;42558;52.388;13.390;2023-02-01T06:32:50;16.72;;;3.61;;
56680;SDS011;42558;52.388;13.390;2023-02-01T06:35:24;14.25;;;3.42;;
56680;SDS011;42558;52.388;13.390;2023-02-01T06:37:53;19.19;;;3.99;;
56680;SDS011;42558;52.388;13.390;2023-02-01T06:40:23;23.18;;;4.18;;
56680;SDS011;42558;52.388;13.390;2023-02-01T06:42:53;18.24;;;4.18;;
56680;SDS011;42558;52.388;13.390;2023-02-01T06:45:23;22.04;;;4.94;;
56680;SDS011;42558;52.388;13.390;2023-02-01T06:47:53;25.08;;;5.13;;
56680;SDS011;42558;52.388;13.390;2023-02-01T06:50:23;19.57;;;3.61;;
56680;SDS011;42558;52.388;13.390;2023-02-01T06:52:53;17.67;;;3.80;;
56680;SDS011;42558;52.388;13.390;2023-02-01T06:55:24;22.61;;;4.37;;
56680;SDS011;42558;52.388;13.390;2023-02-01T06:57:54;30.97;;;6.08;;
56680;SDS011;42558;52.388;13.390;2023-02-01T07:00:24;17.86;;;3.42;;
56680;SDS011;42558;52.388;13.390;2023-02-01T07:02:52;15.01;;;4.37;;
56680;SDS011;42558;52.388;13.390;2023-02-01T07:05:21;23.18;;;6.46;;
56680;SDS011;42558;52.388;13.390;2023-02-01T07:07:49;19.38;;;4.18;;
56680;SDS011;42558;52.388;13.390;2023-02-01T07:10:18;18.24;;;4.37;;
56680;SDS011;42558;52.388;13.390;2023-02-01T07:12:46;30.78;;;5.51;;
56680;SDS011;42558;52.388;13.390;2023-02-01T07:15:14;27.36;;;6.08;;
56680;SDS011;42558;52.388;13.390;2023-02-01T07:17:43;15.39;;;3.42;;
56680;SDS011;42558;52.388;13.390;2023-02-01T07:20:11;17.29;;;4.56;;
56680;SDS011;42558;52.388;13.390;2023-02-01T07:22:40;20.33;;;3.99;;
56680;SDS011;42558;52.388;13.390;2023-02-01T07:25:09;20.52;;;4.75;;
56680;SDS011;42558;52.388;13.390;2023-02-01T07:27:37;25.08;;;4.75;;
56680;SDS011;42558;52.388;13.390;2023-02-01T07:30:06;25.65;;;5.51;;
56680;SDS011;42558;52.388;13.390;2023-02-01T07:32:37;22.61;;;5.51;;
56680;SDS011;42558;52.388;13.390;2023-02-01T07:35:07;23.18;;;4.94;;
56680;SDS011;42558;52.388;13.390;2023-02-01T07:37:37;28.12;;;7.41;;
56680;SDS011;42558;52.388;13.390;2023-02-01T07:40:08;25.08;;;5.51;;
56680;SDS011;42558;52.388;13.390;2023-02-01T07:42:39;21.28;;;4.94;;
56680;SDS011;42558;52.388;13.390;2023-02-01T07:45:09;19.38;;;6.46;;
56680;SDS011;42558;52.388;13.390;2023-02-01T07:47:51;17.29;;;4.94;;
56680;SDS011;42558;52.388;13.390;2023-02-01T07:50:22;18.24;;;5.13;;
56680;SDS011;42558;52.388;13.390;2023-02-01T07:52:52;15.58;;;4.94;;
56680;SDS011;42558;52.388;13.390;2023-02-01T07:55:23;17.67;;;5.13;;
56680;SDS011;42558;52.388;13.390;2023-02-01T07:57:58;22.42;;;5.51;;
56680;SDS011;42558;52.388;13.390;2023-02-01T08:00:28;16.72;;;4.56;;
56680;SDS011;42558;52.388;13.390;2023-02-01T08:03:17;17.48;;;4.56;;
56680;SDS011;42558;52.388;13.390;2023-02-01T08:05:46;21.09;;;5.32;;
56680;SDS011;42558;52.388;13.390;2023-02-01T08:08:16;19.19;;;6.08;;
56680;SDS011;42558;52.388;13.390;2023-02-01T08:10:46;19.95;;;6.08;;
56680;SDS011;42558;52.388;13.390;2023-02-01T08:13:16;10.83;;;4.37;;
56680;SDS011;42558;52.388;13.390;2023-02-01T08:15:46;12.92;;;3.99;;
56680;SDS011;42558;52.388;13.390;2023-02-01T08:18:16;18.43;;;4.94;;
56680;SDS011;42558;52.388;13.390;2023-02-01T08:20:47;17.86;;;6.08;;
56680;SDS011;42558;52.388;13.390;2023-02-01T08:23:17;16.15;;;5.51;;
56680;SDS011;42558;52.388;13.390;2023-02-01T08:25:47;12.92;;;4.56;;
56680;SDS011;42558;52.388;13.390;2023-02-01T08:28:17;12.92;;;4.75;;
56680;SDS011;42558;52.388;13.390;2023-02-01T08:30:47;19.38;;;5.32;;
56680;SDS011;42558;52.388;13.390;2023-02-01T08:33:17;18.05;;;5.89;;
56680;SDS011;42558;52.388;13.390;2023-02-01T08:35:47;18.24;;;5.89;;
56680;SDS011;42558;52.388;13.390;2023-02-01T08:38:17;18.43;;;5.89;;
56680;SDS011;42558;52.388;13.390;2023-02-01T08:40:46;19.76;;;6.08;;
56680;SDS011;42558;52.388;13.390;2023-02-01T08:43:18;17.10;;;5.51;;
56680;SDS011;42558;52.388;13.390;2023-02-01T08:45:50;16.53;;;4.94;;
56680;SDS011;42558;52.388;13.390;2023-02-01T08:48:25;18.05;;;6.27;;
56680;SDS011;42558;52.388;13.390;2023-02-01T08:50:55;20.71;;;5.51;;
56680;SDS011;42558;52.388;13.390;2023-02-01T08:53:25;16.72;;;6.08;;
56680;SDS011;42558;52.388;13.390;2023-02-01T08:55:55;9.69;;;4.18;;
56680;SDS011;42558;52.388;13.390;2023-02-01T08:58:25;16.15;;;4.37;;
56680;SDS011;42558;52.388;13.390;2023-02-01T09:00:55;15.01;;;5.13;;
56680;SDS011;42558;52.388;13.390;2023-02-01T09:03:24;9.88;;;3.80;;
56680;SDS011;42558;52.388;13.390;2023-02-01T09:06:00;12.16;;;3.23;;
56680;SDS011;42558;52.388;13.390;2023-02-01T09:08:31;9.31;;;3.23;;
56680;SDS011;42558;52.388;13.390;2023-02-01T09:11:04;11.40;;;2.85;;
56680;SDS011;42558;52.388;13.390;2023-02-01T09:13:36;9.31;;;3.23;;
56680;SDS011;42558;52.388;13.390;2023-02-01T09:16:06;8.93;;;3.42;;
56680;SDS011;42558;52.388;13.390;2023-02-01T09:18:36;8.55;;;2.85;;
56680;SDS011;42558;52.388;13.390;2023-02-01T09:21:23;7.98;;;2.47;;
56680;SDS011;42558;52.388;13.390;2023-02-01T09:23:51;10.83;;;2.85;;
56680;SDS011;42558;52.388;13.390;2023-02-01T09:26:19;6.65;;;2.66;;
56680;SDS011;42558;52.388;13.390;2023-02-01T09:28:59;10.26;;;3.04;;
56680;SDS011;42558;52.388;13.390;2023-02-01T09:31:30;13.30;;;2.85;;
56680;SDS011;42558;52.388;13.390;2023-02-01T09:34:00;7.79;;;2.85;;
56680;SDS011;42558;52.388;13.390;2023-02-01T09:36:30;8.93;;;2.09;;
56680;SDS011;42558;52.388;13.390;2023-02-01T09:39:01;7.41;;;2.66;;
56680;SDS011;42558;52.388;13.390;2023-02-01T09:41:58;7.03;;;2.28;;
56680;SDS011;42558;52.388;13.390;2023-02-01T09:47:38;9.31;;;3.04;;
56680;SDS011;42558;52.388;13.390;2023-02-01T09:50:21;7.79;;;2.85;;
56680;SDS011;42558;52.388;13.390;2023-02-01T09:53:10;9.12;;;2.47;;
56680;SDS011;42558;52.388;13.390;2023-02-01T09:55:47;9.50;;;2.47;;
56680;SDS011;42558;52.388;13.390;2023-02-01T09:58:27;9.50;;;3.80;;
56680;SDS011;42558;52.388;13.390;2023-02-01T10:01:01;11.59;;;3.23;;
56680;SDS011;42558;52.388;13.390;2023-02-01T10:03:35;6.84;;;2.47;;
56680;SDS011;42558;52.388;13.390;2023-02-01T10:06:43;7.03;;;2.47;;
56680;SDS011;42558;52.388;13.390;2023-02-01T10:09:52;9.69;;;2.47;;
56680;SDS011;42558;52.388;13.390;2023-02-01T10:12:56;8.93;;;2.85;;
56680;SDS011;42558;52.388;13.390;2023-02-01T10:15:55;10.45;;;3.99;;
56680;SDS011;42558;52.388;13.390;2023-02-01T10:27:37;7.22;;;2.28;;
56680;SDS011;42558;52.388;13.390;2023-02-01T10:30:18;10.83;;;2.47;;
56680;SDS011;42558;52.388;13.390;2023-02-01T10:33:15;9.50;;;2.28;;
56680;SDS011;42558;52.388;13.390;2023-02-01T10:36:04;9.69;;;2.66;;
56680;SDS011;42558;52.388;13.390;2023-02-01T10:38:43;10.45;;;2.47;;
56680;SDS011;42558;52.388;13.390;2023-02-01T10:41:19;8.36;;;2.85;;
56680;SDS011;42558;52.388;13.390;2023-02-01T10:43:55;11.21;;;3.23;;
56680;SDS011;42558;52.388;13.390;2023-02-01T10:46:27;7.79;;;3.04;;
56680;SDS011;42558;52.388;13.390;2023-02-01T10:49:02;9.88;;;2.66;;
56680;SDS011;42558;52.388;13.390;2023-02-01T10:51:58;12.16;;;2.47;;
56680;SDS011;42558;52.388;13.390;2023-02-01T10:54:38;8.17;;;2.66;;
56680;SDS011;42558;52.388;13.390;2023-02-01T10:57:11;12.54;;;3.04;;
56680;SDS011;42558;52.388;13.390;2023-02-01T10:59:52;10.45;;;3.42;;
56680;SDS011;42558;52.388;13.390;2023-02-01T11:02:32;13.87;;;3.61;;
56680;SDS011;42558;52.388;13.390;2023-02-01T11:05:08;12.35;;;2.66;;
56680;SDS011;42558;52.388;13.390;2023-02-01T11:07:48;10.64;;;2.09;;
56680;SDS011;42558;52.388;13.390;2023-02-01T11:10:41;12.54;;;3.42;;
56680;SDS011;42558;52.388;13.390;2023-02-01T11:13:14;19.19;;;3.42;;
56680;SDS011;42558;52.388;13.390;2023-02-01T11:15:55;13.11;;;3.23;;
56680;SDS011;42558;52.388;13.390;2023-02-01T11:18:31;12.92;;;2.85;;
56680;SDS011;42558;52.388;13.390;2023-02-01T11:21:06;16.53;;;3.23;;
56680;SDS011;42558;52.388;13.390;2023-02-01T11:23:41;9.50;;;2.66;;
56680;SDS011;42558;52.388;13.390;2023-02-01T11:26:21;14.06;;;3.61;;
56680;SDS011;42558;52.388;13.390;2023-02-01T11:29:04;11.97;;;3.23;;
56680;SDS011;42558;52.388;13.390;2023-02-01T11:31:40;10.64;;;3.04;;
56680;SDS011;42558;52.388;13.390;2023-02-01T11:34:16;15.58;;;3.80;;
56680;SDS011;42558;52.388;13.390;2023-02-01T11:36:48;14.44;;;3.80;;
56680;SDS011;42558;52.388;13.390;2023-02-01T11:39:29;11.21;;;2.85;;
56680;SDS011;42558;52.388;13.390;2023-02-01T11:42:15;13.11;;;2.47;;
56680;SDS011;42558;52.388;13.390;2023-02-01T11:44:47;12.54;;;3.23;;
56680;SDS011;42558;52.388;13.390;2023-02-01T11:47:27;10.64;;;2.47;;
56680;SDS011;42558;52.388;13.390;2023-02-01T11:50:16;13.11;;;3.04;;
56680;SDS011;42558;52.388;13.390;2023-02-01T11:58:56;12.16;;;3.61;;
56680;SDS011;42558;52.388;13.390;2023-02-01T12:05:06;11.02;;;2.47;;
56680;SDS011;42558;52.388;13.390;2023-02-01T12:11:19;13.30;;;3.42;;
56680;SDS011;42558;52.388;13.390;2023-02-01T12:20:23;12.16;;;2.66;;
56680;SDS011;42558;52.388;13.390;2023-02-01T12:23:42;15.77;;;4.18;;
56680;SDS011;42558;52.388;13.390;2023-02-01T12:35:53;13.11;;;3.42;;
56680;SDS011;42558;52.388;13.390;2023-02-01T12:38:57;17.67;;;3.04;;
56680;SDS011;42558;52.388;13.390;2023-02-01T12:41:57;11.40;;;3.04;;
56680;SDS011;42558;52.388;13.390;2023-02-01T12:50:17;12.73;;;3.42;;
56680;SDS011;42558;52.388;13.390;2023-02-01T12:53:11;14.44;;;3.04;;
56680;SDS011;42558;52.388;13.390;2023-02-01T12:55:56;8.55;;;3.04;;
56680;SDS011;42558;52.388;13.390;2023-02-01T12:58:46;12.16;;;3.42;;
56680;SDS011;42558;52.388;13.390;2023-02-01T13:04:40;13.30;;;3.61;;
56680;SDS011;42558;52.388;13.390;2023-02-01T13:10:45;11.59;;;2.66;;
56680;SDS011;42558;52.388;13.390;2023-02-01T13:13:55;8.55;;;2.09;;
56680;SDS011;42558;52.388;13.390;2023-02-01T13:16:57;9.12;;;2.47;;
56680;SDS011;42558;52.388;13.390;2023-02-01T13:22:38;14.63;;;3.04;;
56680;SDS011;42558;52.388;13.390;2023-02-01T13:25:29;12.54;;;3.23;;
56680;SDS011;42558;52.388;13.390;2023-02-01T13:28:06;19.19;;;3.99;;
56680;SDS011;42558;52.388;13.390;2023-02-01T13:42:51;9.88;;;2.47;;
56680;SDS011;42558;52.388;13.390;2023-02-01T13:45:30;16.72;;;3.61;;
56680;SDS011;42558;52.388;13.390;2023-02-01T13:48:05;13.87;;;4.56;;
56680;SDS011;42558;52.388;13.390;2023-02-01T13:50:37;13.87;;;3.61;;
56680;SDS011;42558;52.388;13.390;2023-02-01T13:55:41;13.11;;;4.18;;
56680;SDS011;42558;52.388;13.390;2023-02-01T14:03:58;16.72;;;3.42;;
56680;SDS011;42558;52.388;13.390;2023-02-01T14:06:42;19.76;;;4.18;;
56680;SDS011;42558;52.388;13.390;2023-02-01T14:09:16;12.16;;;3.42;;
56680;SDS011;42558;52.388;13.390;2023-02-01T14:19:24;17.29;;;3.99;;
56680;SDS011;42558;52.388;13.390;2023-02-01T14:24:56;16.53;;;3.99;;
56680;SDS011;42558;52.388;13.390;2023-02-01T14:27:30;18.05;;;3.80;;
56680;SDS011;42558;52.388;13.390;2023-02-01T14:30:07;20.33;;;4.75;;
56680;SDS011;42558;52.388;13.390;2023-02-01T14:32:45;18.05;;;3.23;;
56680;SDS011;42558;52.388;13.390;2023-02-01T14:35:21;12.16;;;3.04;;
56680;SDS011;42558;52.388;13.390;2023-02-01T14:38:00;19.00;;;3.99;;
56680;SDS011;42558;52.388;13.390;2023-02-01T14:40:36;15.58;;;3.42;;
56680;SDS011;42558;52.388;13.390;2023-02-01T14:43:07;20.52;;;4.37;;
56680;SDS011;42558;52.388;13.390;2023-02-01T14:45:57;14.63;;;3.23;;
56680;SDS011;42558;52.388;13.390;2023-02-01T14:50:59;16.72;;;3.61;;
56680;SDS011;42558;52.388;13.390;2023-02-01T14:53:33;14.25;;;3.80;;
56680;SDS011;42558;52.388;13.390;2023-02-01T14:58:52;14.44;;;3.99;;
56680;SDS011;42558;52.388;13.390;2023-02-01T15:01:30;10.83;;;3.04;;
56680;SDS011;42558;52.388;13.390;2023-02-01T15:04:16;17.48;;;4.18;;
56680;SDS011;42558;52.388;13.390;2023-02-01T15:06:58;18.81;;;4.18;;
56680;SDS011;42558;52.388;13.390;2023-02-01T15:09:41;13.68;;;3.61;;
56680;SDS011;42558;52.388;13.390;2023-02-01T15:12:22;11.78;;;3.80;;
56680;SDS011;42558;52.388;13.390;2023-02-01T15:17:57;9.88;;;2.47;;
56680;SDS011;42558;52.388;13.390;2023-02-01T15:20:33;10.07;;;3.23;;
56680;SDS011;42558;52.388;13.390;2023-02-01T15:23:06;12.73;;;3.42;;
56680;SDS011;42558;52.388;13.390;2023-02-01T15:25:46;12.16;;;2.47;;
56680;SDS011;42558;52.388;13.390;2023-02-01T15:28:17;12.35;;;2.66;;
56680;SDS011;42558;52.388;13.390;2023-02-01T15:30:59;10.83;;;2.85;;
56680;SDS011;42558;52.388;13.390;2023-02-01T15:33:31;7.79;;;1.90;;
56680;SDS011;42558;52.388;13.390;2023-02-01T15:38:40;7.22;;;1.90;;
56680;SDS011;42558;52.388;13.390;2023-02-01T15:44:04;6.65;;;2.09;;
56680;SDS011;42558;52.388;13.390;2023-02-01T15:46:43;9.50;;;2.47;;
56680;SDS011;42558;52.388;13.390;2023-02-01T15:49:32;8.17;;;2.47;;
56680;SDS011;42558;52.388;13.390;2023-02-01T15:52:37;5.70;;;2.28;;
56680;SDS011;42558;52.388;13.390;2023-02-01T15:57:48;7.03;;;2.66;;
56680;SDS011;42558;52.388;13.390;2023-02-01T16:00:28;8.55;;;3.23;;
56680;SDS011;42558;52.388;13.390;2023-02-01T16:03:05;10.07;;;3.42;;
56680;SDS011;42558;52.388;13.390;2023-02-01T16:06:07;11.02;;;3.04;;
56680;SDS011;42558;52.388;13.390;2023-02-01T16:08:54;7.03;;;2.66;;
56680;SDS011;42558;52.388;13.390;2023-02-01T16:11:31;13.30;;;6.08;;
56680;SDS011;42558;52.388;13.390;2023-02-01T16:14:09;19.38;;;7.79;;
56680;SDS011;42558;52.388;13.390;2023-02-01T16:16:37;9.12;;;3.80;;
56680;SDS011;42558;52.388;13.390;2023-02-01T16:19:05;13.11;;;5.51;;
56680;SDS011;42558;52.388;13.390;2023-02-01T16:21:33;7.79;;;3.80;;
56680;SDS011;42558;52.388;13.390;2023-02-01T16:24:03;8.74;;;3.99;;
56680;SDS011;42558;52.388;13.390;2023-02-01T16:26:33;11.02;;;5.13;;
56680;SDS011;42558;52.388;13.390;2023-02-01T16:29:03;9.12;;;4.18;;
56680;SDS011;42558;52.388;13.390;2023-02-01T16:31:37;7.41;;;2.66;;
56680;SDS011;42558;52.388;13.390;2023-02-01T16:34:14;5.89;;;2.28;;
56680;SDS011;42558;52.388;13.390;2023-02-01T16:36:47;5.70;;;1.71;;
56680;SDS011;42558;52.388;13.390;2023-02-01T16:39:20;4.56;;;1.52;;
56680;SDS011;42558;52.388;13.390;2023-02-01T16:41:50;4.37;;;1.33;;
56680;SDS011;42558;52.388;13.390;2023-02-01T16:44:20;5.89;;;1.52;;
56680;SDS011;42558;52.388;13.390;2023-02-01T16:46:51;4.56;;;1.33;;
56680;SDS011;42558;52.388;13.390;2023-02-01T16:49:24;4.75;;;1.52;;
56680;SDS011;42558;52.388;13.390;2023-02-01T16:51:57;5.51;;;1.52;;
56680;SDS011;42558;52.388;13.390;2023-02-01T16:54:26;4.37;;;1.14;;
56680;SDS011;42558;52.388;13.390;2023-02-01T16:56:56;4.75;;;1.52;;
56680;SDS011;42558;52.388;13.390;2023-02-01T16:59:26;4.37;;;1.33;;
56680;SDS011;42558;52.388;13.390;2023-02-01T17:01:56;5.51;;;1.33;;
56680;SDS011;42558;52.388;13.390;2023-02-01T17:04:26;6.27;;;1.52;;
56680;SDS011;42558;52.388;13.390;2023-02-01T17:06:56;5.89;;;1.71;;
56680;SDS011;42558;52.388;13.390;2023-02-01T17:09:26;5.89;;;1.90;;
56680;SDS011;42558;52.388;13.390;2023-02-01T17:11:56;7.60;;;2.28;;
56680;SDS011;42558;52.388;13.390;2023-02-01T17:14:26;5.89;;;1.52;;
56680;SDS011;42558;52.388;13.390;2023-02-01T17:16:56;5.32;;;1.33;;
56680;SDS011;42558;52.388;13.390;2023-02-01T17:19:29;8.55;;;1.71;;
56680;SDS011;42558;52.388;13.390;2023-02-01T17:21:59;6.27;;;1.33;;
56680;SDS011;42558;52.388;13.390;2023-02-01T17:24:31;10.07;;;2.09;;
56680;SDS011;42558;52.388;13.390;2023-02-01T17:27:16;8.17;;;1.90;;